Duty Ferry, Louisiana
Current Conditions -  °F | °C
As of 6:04 PM on Wednesday 24 Dec 2014 (Local Time) from KMLU Reporting Station
Light Rain Light Rain  
Wind Chill: 40°   Ceiling: 3000
Heat Index: 45°   Visibility: 10mi
Dew Point: 39°   Wind: 10mph
Humidity: 80%   Direction: 300°WNW
Pressure: 30.03"   Gusts: 18mph
Location:  32.1631°N, 92.1971°W
Report Text: KMLU 250004Z 30009G16KT 10SM -RA SCT025 BKN030 OVC042 07/04 A3003 RMK AO2 RAB02 P0000 T00720039
Loading
Personal Weather Stations






























Interactive Weather Map New forecast layout! Learn more

10-Day Weather Forecast

Advertisements
Track Severe Weather on mobile